sensor_id;sensor_type;location;lat;lon;timestamp;pressure;altitude;pressure_sealevel;temperature;humidity
68077;BME280;54866;53.458;14.540;2023-04-05T00:01:46;101520.64;;;1.50;59.98
68077;BME280;54866;53.458;14.540;2023-04-05T00:04:17;101521.90;;;1.48;60.20
68077;BME280;54866;53.458;14.540;2023-04-05T00:06:48;101518.49;;;1.46;60.28
68077;BME280;54866;53.458;14.540;2023-04-05T00:09:20;101518.51;;;1.45;60.38
68077;BME280;54866;53.458;14.540;2023-04-05T00:11:50;101519.59;;;1.44;60.47
68077;BME280;54866;53.458;14.540;2023-04-05T00:14:20;101517.34;;;1.44;61.03
68077;BME280;54866;53.458;14.540;2023-04-05T00:16:49;101518.39;;;1.44;61.00
68077;BME280;54866;53.458;14.540;2023-04-05T00:19:19;101521.73;;;1.42;60.94
68077;BME280;54866;53.458;14.540;2023-04-05T00:21:50;101520.38;;;1.41;61.21
68077;BME280;54866;53.458;14.540;2023-04-05T00:24:21;101519.88;;;1.40;61.37
68077;BME280;54866;53.458;14.540;2023-04-05T00:26:51;101519.95;;;1.37;61.48
68077;BME280;54866;53.458;14.540;2023-04-05T00:29:21;101519.27;;;1.36;61.61
68077;BME280;54866;53.458;14.540;2023-04-05T00:31:50;101514.96;;;1.35;61.83
68077;BME280;54866;53.458;14.540;2023-04-05T00:34:20;101514.17;;;1.32;62.27
68077;BME280;54866;53.458;14.540;2023-04-05T00:36:49;101512.98;;;1.32;62.45
68077;BME280;54866;53.458;14.540;2023-04-05T00:39:19;101512.48;;;1.31;62.89
68077;BME280;54866;53.458;14.540;2023-04-05T00:41:48;101515.29;;;1.30;62.98
68077;BME280;54866;53.458;14.540;2023-04-05T00:44:18;101511.33;;;1.29;63.06
68077;BME280;54866;53.458;14.540;2023-04-05T00:46:47;101506.66;;;1.28;63.24
68077;BME280;54866;53.458;14.540;2023-04-05T00:49:17;101509.98;;;1.27;63.74
68077;BME280;54866;53.458;14.540;2023-04-05T00:51:47;101509.31;;;1.26;64.00
68077;BME280;54866;53.458;14.540;2023-04-05T00:54:18;101508.45;;;1.26;64.14
68077;BME280;54866;53.458;14.540;2023-04-05T00:56:47;101510.22;;;1.25;64.45
68077;BME280;54866;53.458;14.540;2023-04-05T00:59:20;101508.36;;;1.23;64.97
68077;BME280;54866;53.458;14.540;2023-04-05T01:01:52;101503.02;;;1.22;65.26
68077;BME280;54866;53.458;14.540;2023-04-05T01:04:25;101504.58;;;1.21;65.75
68077;BME280;54866;53.458;14.540;2023-04-05T01:06:59;101501.33;;;1.19;65.82
68077;BME280;54866;53.458;14.540;2023-04-05T01:09:47;101499.63;;;1.17;66.09
68077;BME280;54866;53.458;14.540;2023-04-05T01:12:20;101496.34;;;1.18;66.27
68077;BME280;54866;53.458;14.540;2023-04-05T01:14:52;101499.30;;;1.17;66.38
68077;BME280;54866;53.458;14.540;2023-04-05T01:17:23;101498.42;;;1.17;66.66
68077;BME280;54866;53.458;14.540;2023-04-05T01:19:56;101501.54;;;1.18;66.76
68077;BME280;54866;53.458;14.540;2023-04-05T01:25:43;101495.14;;;1.17;66.82
68077;BME280;54866;53.458;14.540;2023-04-05T01:31:25;101493.70;;;1.18;67.03
68077;BME280;54866;53.458;14.540;2023-04-05T01:34:01;101489.89;;;1.18;67.14
68077;BME280;54866;53.458;14.540;2023-04-05T01:36:40;101491.42;;;1.19;67.00
68077;BME280;54866;53.458;14.540;2023-04-05T01:39:14;101496.27;;;1.19;67.19
68077;BME280;54866;53.458;14.540;2023-04-05T01:41:45;101497.36;;;1.18;67.22
68077;BME280;54866;53.458;14.540;2023-04-05T01:44:15;101499.46;;;1.17;67.38
68077;BME280;54866;53.458;14.540;2023-04-05T01:46:44;101494.80;;;1.16;67.46
68077;BME280;54866;53.458;14.540;2023-04-05T01:49:14;101496.56;;;1.16;67.41
68077;BME280;54866;53.458;14.540;2023-04-05T01:51:43;101497.13;;;1.14;67.64
68077;BME280;54866;53.458;14.540;2023-04-05T01:54:13;101493.85;;;1.13;67.60
68077;BME280;54866;53.458;14.540;2023-04-05T01:56:43;101490.05;;;1.12;67.64
68077;BME280;54866;53.458;14.540;2023-04-05T01:59:13;101491.62;;;1.12;67.59
68077;BME280;54866;53.458;14.540;2023-04-05T02:01:42;101492.51;;;1.12;67.61
68077;BME280;54866;53.458;14.540;2023-04-05T02:04:12;101491.13;;;1.12;67.59
68077;BME280;54866;53.458;14.540;2023-04-05T02:06:42;101492.31;;;1.12;67.51
68077;BME280;54866;53.458;14.540;2023-04-05T02:09:11;101492.45;;;1.14;67.60
68077;BME280;54866;53.458;14.540;2023-04-05T02:11:41;101494.70;;;1.14;67.51
68077;BME280;54866;53.458;14.540;2023-04-05T02:14:10;101492.63;;;1.14;67.75
68077;BME280;54866;53.458;14.540;2023-04-05T02:16:40;101495.95;;;1.13;67.96
68077;BME280;54866;53.458;14.540;2023-04-05T02:19:10;101499.29;;;1.11;67.93
68077;BME280;54866;53.458;14.540;2023-04-05T02:21:40;101499.48;;;1.10;67.96
68077;BME280;54866;53.458;14.540;2023-04-05T02:24:09;101503.48;;;1.10;68.17
68077;BME280;54866;53.458;14.540;2023-04-05T02:26:39;101495.91;;;1.08;68.62
68077;BME280;54866;53.458;14.540;2023-04-05T02:29:08;101493.55;;;1.06;68.80
68077;BME280;54866;53.458;14.540;2023-04-05T02:31:38;101495.31;;;1.04;69.21
68077;BME280;54866;53.458;14.540;2023-04-05T02:34:08;101495.84;;;1.04;69.39
68077;BME280;54866;53.458;14.540;2023-04-05T02:36:38;101487.90;;;1.02;69.38
68077;BME280;54866;53.458;14.540;2023-04-05T02:39:09;101484.89;;;1.05;69.17
68077;BME280;54866;53.458;14.540;2023-04-05T02:41:38;101482.98;;;1.05;69.22
68077;BME280;54866;53.458;14.540;2023-04-05T02:44:08;101483.51;;;1.04;69.56
68077;BME280;54866;53.458;14.540;2023-04-05T02:46:37;101481.98;;;1.03;69.66
68077;BME280;54866;53.458;14.540;2023-04-05T02:49:07;101484.58;;;1.03;69.82
68077;BME280;54866;53.458;14.540;2023-04-05T02:51:37;101485.46;;;1.02;69.80
68077;BME280;54866;53.458;14.540;2023-04-05T02:54:06;101486.55;;;1.00;69.57
68077;BME280;54866;53.458;14.540;2023-04-05T02:56:36;101488.66;;;0.99;69.53
68077;BME280;54866;53.458;14.540;2023-04-05T02:59:05;101489.39;;;0.98;69.52
68077;BME280;54866;53.458;14.540;2023-04-05T03:01:35;101496.50;;;0.98;69.48
68077;BME280;54866;53.458;14.540;2023-04-05T03:04:05;101491.66;;;0.97;69.79
68077;BME280;54866;53.458;14.540;2023-04-05T03:06:34;101489.22;;;0.98;69.45
68077;BME280;54866;53.458;14.540;2023-04-05T03:09:04;101475.48;;;0.99;69.26
68077;BME280;54866;53.458;14.540;2023-04-05T03:11:35;101475.11;;;1.00;68.83
68077;BME280;54866;53.458;14.540;2023-04-05T03:14:04;101474.37;;;1.01;68.90
68077;BME280;54866;53.458;14.540;2023-04-05T03:16:34;101471.04;;;1.03;68.72
68077;BME280;54866;53.458;14.540;2023-04-05T03:19:03;101469.98;;;1.04;68.63
68077;BME280;54866;53.458;14.540;2023-04-05T03:21:33;101468.02;;;1.06;68.59
68077;BME280;54866;53.458;14.540;2023-04-05T03:24:03;101470.93;;;1.08;68.71
68077;BME280;54866;53.458;14.540;2023-04-05T03:26:32;101470.36;;;1.09;68.58
68077;BME280;54866;53.458;14.540;2023-04-05T03:29:02;101463.73;;;1.11;68.40
68077;BME280;54866;53.458;14.540;2023-04-05T03:31:32;101461.65;;;1.11;68.21
68077;BME280;54866;53.458;14.540;2023-04-05T03:34:02;101459.73;;;1.11;68.18
68077;BME280;54866;53.458;14.540;2023-04-05T03:36:31;101463.21;;;1.10;68.30
68077;BME280;54866;53.458;14.540;2023-04-05T03:39:09;101463.41;;;1.10;68.24
68077;BME280;54866;53.458;14.540;2023-04-05T03:41:39;101462.75;;;1.08;68.31
68077;BME280;54866;53.458;14.540;2023-04-05T03:44:09;101462.44;;;1.07;68.30
68077;BME280;54866;53.458;14.540;2023-04-05T03:46:39;101460.13;;;1.09;68.23
68077;BME280;54866;53.458;14.540;2023-04-05T03:49:09;101455.81;;;1.08;68.50
68077;BME280;54866;53.458;14.540;2023-04-05T03:51:39;101454.96;;;1.08;68.79
68077;BME280;54866;53.458;14.540;2023-04-05T03:54:09;101460.02;;;1.07;69.04
68077;BME280;54866;53.458;14.540;2023-04-05T03:56:38;101456.94;;;1.05;68.96
68077;BME280;54866;53.458;14.540;2023-04-05T03:59:08;101462.34;;;1.05;69.15
68077;BME280;54866;53.458;14.540;2023-04-05T04:01:39;101459.23;;;1.03;69.25
68077;BME280;54866;53.458;14.540;2023-04-05T04:04:09;101456.31;;;1.02;69.38
68077;BME280;54866;53.458;14.540;2023-04-05T04:06:40;101461.98;;;0.98;69.37
68077;BME280;54866;53.458;14.540;2023-04-05T04:09:10;101458.92;;;0.96;69.15
68077;BME280;54866;53.458;14.540;2023-04-05T04:11:39;101456.71;;;0.94;68.89
68077;BME280;54866;53.458;14.540;2023-04-05T04:14:09;101459.52;;;0.93;68.71
68077;BME280;54866;53.458;14.540;2023-04-05T04:16:38;101457.95;;;0.93;68.74
68077;BME280;54866;53.458;14.540;2023-04-05T04:19:08;101458.48;;;0.93;68.69
68077;BME280;54866;53.458;14.540;2023-04-05T04:21:38;101456.92;;;0.92;68.44
68077;BME280;54866;53.458;14.540;2023-04-05T04:24:08;101459.27;;;0.96;68.25
68077;BME280;54866;53.458;14.540;2023-04-05T04:26:37;101458.38;;;0.96;68.01
68077;BME280;54866;53.458;14.540;2023-04-05T04:29:08;101456.60;;;0.98;67.82
68077;BME280;54866;53.458;14.540;2023-04-05T04:31:40;101456.94;;;0.98;67.76
68077;BME280;54866;53.458;14.540;2023-04-05T04:34:13;101461.67;;;0.97;67.74
68077;BME280;54866;53.458;14.540;2023-04-05T04:36:45;101468.66;;;0.95;67.52
68077;BME280;54866;53.458;14.540;2023-04-05T04:39:15;101467.81;;;0.94;67.15
68077;BME280;54866;53.458;14.540;2023-04-05T04:41:46;101466.73;;;0.95;66.78
68077;BME280;54866;53.458;14.540;2023-04-05T04:44:16;101467.73;;;0.97;66.51
68077;BME280;54866;53.458;14.540;2023-04-05T04:46:45;101470.01;;;1.02;66.31
68077;BME280;54866;53.458;14.540;2023-04-05T04:49:15;101472.52;;;1.07;66.25
68077;BME280;54866;53.458;14.540;2023-04-05T04:51:45;101478.94;;;1.12;66.13
68077;BME280;54866;53.458;14.540;2023-04-05T04:54:15;101475.88;;;1.17;65.94
68077;BME280;54866;53.458;14.540;2023-04-05T04:56:47;101473.67;;;1.21;65.68
68077;BME280;54866;53.458;14.540;2023-04-05T04:59:17;101471.88;;;1.24;65.90
68077;BME280;54866;53.458;14.540;2023-04-05T05:01:47;101475.45;;;1.27;65.87
68077;BME280;54866;53.458;14.540;2023-04-05T05:04:16;101477.61;;;1.30;65.54
68077;BME280;54866;53.458;14.540;2023-04-05T05:06:46;101478.18;;;1.34;65.41
68077;BME280;54866;53.458;14.540;2023-04-05T05:09:18;101477.36;;;1.39;65.23
68077;BME280;54866;53.458;14.540;2023-04-05T05:11:47;101479.85;;;1.43;65.17
68077;BME280;54866;53.458;14.540;2023-04-05T05:14:17;101475.42;;;2.04;65.00
68077;BME280;54866;53.458;14.540;2023-04-05T05:16:47;101464.23;;;3.79;62.78
68077;BME280;54866;53.458;14.540;2023-04-05T05:19:16;101464.63;;;5.48;59.42
68077;BME280;54866;53.458;14.540;2023-04-05T05:21:46;101459.56;;;6.95;55.40
68077;BME280;54866;53.458;14.540;2023-04-05T05:24:17;101463.10;;;8.31;52.38
68077;BME280;54866;53.458;14.540;2023-04-05T05:26:46;101454.64;;;9.54;48.33
68077;BME280;54866;53.458;14.540;2023-04-05T05:29:17;101454.93;;;10.36;45.04
68077;BME280;54866;53.458;14.540;2023-04-05T05:31:47;101453.59;;;10.80;43.63
68077;BME280;54866;53.458;14.540;2023-04-05T05:34:17;101461.30;;;11.27;43.32
68077;BME280;54866;53.458;14.540;2023-04-05T05:36:46;101457.92;;;11.84;42.30
68077;BME280;54866;53.458;14.540;2023-04-05T05:39:16;101453.96;;;12.36;41.36
68077;BME280;54866;53.458;14.540;2023-04-05T05:41:46;101457.68;;;12.92;40.31
68077;BME280;54866;53.458;14.540;2023-04-05T05:44:15;101459.79;;;13.37;38.65
68077;BME280;54866;53.458;14.540;2023-04-05T05:46:45;101457.01;;;13.70;37.61
68077;BME280;54866;53.458;14.540;2023-04-05T05:49:16;101452.83;;;14.17;37.30
68077;BME280;54866;53.458;14.540;2023-04-05T05:51:45;101453.08;;;14.91;36.72
68077;BME280;54866;53.458;14.540;2023-04-05T05:54:15;101454.65;;;15.66;35.17
68077;BME280;54866;53.458;14.540;2023-04-05T05:56:45;101452.56;;;16.20;33.58
68077;BME280;54866;53.458;14.540;2023-04-05T05:59:15;101455.95;;;16.63;33.00
68077;BME280;54866;53.458;14.540;2023-04-05T06:01:44;101454.20;;;17.16;32.15
68077;BME280;54866;53.458;14.540;2023-04-05T06:04:14;101452.35;;;17.75;31.24
68077;BME280;54866;53.458;14.540;2023-04-05T06:06:44;101448.32;;;18.00;30.37
68077;BME280;54866;53.458;14.540;2023-04-05T06:09:15;101447.48;;;18.34;30.33
68077;BME280;54866;53.458;14.540;2023-04-05T06:11:45;101445.78;;;18.70;29.27
68077;BME280;54866;53.458;14.540;2023-04-05T06:14:15;101444.77;;;18.91;28.93
68077;BME280;54866;53.458;14.540;2023-04-05T06:16:44;101443.45;;;19.06;27.76
68077;BME280;54866;53.458;14.540;2023-04-05T06:19:15;101446.90;;;19.01;27.85
68077;BME280;54866;53.458;14.540;2023-04-05T06:21:44;101446.52;;;19.12;27.23
68077;BME280;54866;53.458;14.540;2023-04-05T06:24:14;101441.50;;;19.04;26.70
68077;BME280;54866;53.458;14.540;2023-04-05T06:26:43;101444.59;;;19.26;26.95
68077;BME280;54866;53.458;14.540;2023-04-05T06:29:13;101446.58;;;19.34;26.17
68077;BME280;54866;53.458;14.540;2023-04-05T06:31:42;101443.35;;;19.57;25.97
68077;BME280;54866;53.458;14.540;2023-04-05T06:34:13;101441.27;;;19.58;25.24
68077;BME280;54866;53.458;14.540;2023-04-05T06:36:43;101447.25;;;19.61;25.39
68077;BME280;54866;53.458;14.540;2023-04-05T06:39:13;101445.80;;;20.08;25.10
68077;BME280;54866;53.458;14.540;2023-04-05T06:41:43;101445.41;;;21.15;23.85
68077;BME280;54866;53.458;14.540;2023-04-05T06:44:12;101445.98;;;22.04;23.23
68077;BME280;54866;53.458;14.540;2023-04-05T06:46:42;101441.48;;;22.78;21.88
68077;BME280;54866;53.458;14.540;2023-04-05T06:49:11;101441.23;;;22.37;21.67
68077;BME280;54866;53.458;14.540;2023-04-05T06:51:41;101441.66;;;22.05;22.17
68077;BME280;54866;53.458;14.540;2023-04-05T06:54:10;101441.48;;;21.90;22.40
68077;BME280;54866;53.458;14.540;2023-04-05T06:56:40;101437.04;;;22.27;21.85
68077;BME280;54866;53.458;14.540;2023-04-05T06:59:10;101437.48;;;22.32;21.00
68077;BME280;54866;53.458;14.540;2023-04-05T07:01:39;101441.09;;;22.26;20.99
68077;BME280;54866;53.458;14.540;2023-04-05T07:04:09;101432.48;;;22.47;21.08
68077;BME280;54866;53.458;14.540;2023-04-05T07:06:38;101433.21;;;22.85;20.67
68077;BME280;54866;53.458;14.540;2023-04-05T07:12:22;101434.31;;;22.22;19.83
68077;BME280;54866;53.458;14.540;2023-04-05T07:14:50;101434.89;;;21.73;20.56
68077;BME280;54866;53.458;14.540;2023-04-05T07:17:18;101437.66;;;21.51;20.68
68077;BME280;54866;53.458;14.540;2023-04-05T07:19:45;101438.36;;;21.06;21.10
68077;BME280;54866;53.458;14.540;2023-04-05T07:22:13;101443.98;;;20.70;21.44
68077;BME280;54866;53.458;14.540;2023-04-05T07:24:40;101443.72;;;20.77;21.38
68077;BME280;54866;53.458;14.540;2023-04-05T07:27:08;101441.09;;;21.17;21.39
68077;BME280;54866;53.458;14.540;2023-04-05T07:29:35;101437.04;;;21.45;20.93
68077;BME280;54866;53.458;14.540;2023-04-05T07:32:06;101430.61;;;21.37;20.66
68077;BME280;54866;53.458;14.540;2023-04-05T07:34:34;101433.52;;;20.75;21.00
68077;BME280;54866;53.458;14.540;2023-04-05T07:37:05;101435.30;;;20.85;21.27
68077;BME280;54866;53.458;14.540;2023-04-05T07:39:33;101432.22;;;21.10;21.28
68077;BME280;54866;53.458;14.540;2023-04-05T07:42:00;101428.20;;;21.82;20.82
68077;BME280;54866;53.458;14.540;2023-04-05T07:44:28;101425.26;;;22.00;20.14
68077;BME280;54866;53.458;14.540;2023-04-05T07:46:55;101427.84;;;21.15;20.87
68077;BME280;54866;53.458;14.540;2023-04-05T07:49:25;101428.16;;;21.35;20.45
68077;BME280;54866;53.458;14.540;2023-04-05T07:51:55;101426.02;;;21.28;20.31
68077;BME280;54866;53.458;14.540;2023-04-05T07:54:22;101427.70;;;21.53;20.58
68077;BME280;54866;53.458;14.540;2023-04-05T07:56:50;101430.55;;;21.89;20.47
68077;BME280;54866;53.458;14.540;2023-04-05T07:59:18;101425.26;;;22.26;20.12
68077;BME280;54866;53.458;14.540;2023-04-05T08:01:46;101429.90;;;22.31;19.64
68077;BME280;54866;53.458;14.540;2023-04-05T08:04:13;101428.80;;;22.23;19.66
68077;BME280;54866;53.458;14.540;2023-04-05T08:06:41;101426.68;;;22.25;19.86
68077;BME280;54866;53.458;14.540;2023-04-05T08:09:09;101427.83;;;22.16;19.49
68077;BME280;54866;53.458;14.540;2023-04-05T08:11:37;101428.52;;;21.28;19.49
68077;BME280;54866;53.458;14.540;2023-04-05T08:14:04;101426.34;;;20.37;20.37
68077;BME280;54866;53.458;14.540;2023-04-05T08:16:32;101432.44;;;19.76;21.25
68077;BME280;54866;53.458;14.540;2023-04-05T08:19:00;101428.02;;;20.05;21.50
68077;BME280;54866;53.458;14.540;2023-04-05T08:21:27;101426.27;;;20.32;20.70
68077;BME280;54866;53.458;14.540;2023-04-05T08:23:55;101431.23;;;20.32;20.67
68077;BME280;54866;53.458;14.540;2023-04-05T08:26:24;101430.19;;;20.58;20.91
68077;BME280;54866;53.458;14.540;2023-04-05T08:28:51;101429.09;;;21.26;20.48
68077;BME280;54866;53.458;14.540;2023-04-05T08:31:19;101424.63;;;21.58;19.91
68077;BME280;54866;53.458;14.540;2023-04-05T08:33:47;101419.48;;;21.64;19.92
68077;BME280;54866;53.458;14.540;2023-04-05T08:36:14;101420.15;;;20.81;19.95
68077;BME280;54866;53.458;14.540;2023-04-05T08:38:42;101414.02;;;20.24;20.20
68077;BME280;54866;53.458;14.540;2023-04-05T08:41:19;101418.30;;;20.03;20.34
68077;BME280;54866;53.458;14.540;2023-04-05T08:43:55;101419.02;;;20.43;20.25
68077;BME280;54866;53.458;14.540;2023-04-05T08:46:24;101421.49;;;20.82;19.64
68077;BME280;54866;53.458;14.540;2023-04-05T08:48:52;101419.91;;;21.19;19.42
68077;BME280;54866;53.458;14.540;2023-04-05T08:51:20;101417.42;;;21.17;19.15
68077;BME280;54866;53.458;14.540;2023-04-05T08:53:48;101421.36;;;21.12;19.23
68077;BME280;54866;53.458;14.540;2023-04-05T08:56:19;101421.77;;;21.34;19.08
68077;BME280;54866;53.458;14.540;2023-04-05T08:58:49;101423.39;;;21.16;19.21
68077;BME280;54866;53.458;14.540;2023-04-05T09:01:20;101426.55;;;20.94;18.97
68077;BME280;54866;53.458;14.540;2023-04-05T09:03:49;101422.19;;;21.17;19.48
68077;BME280;54866;53.458;14.540;2023-04-05T09:06:18;101415.16;;;22.00;18.45
68077;BME280;54866;53.458;14.540;2023-04-05T09:08:46;101416.91;;;22.15;18.32
68077;BME280;54866;53.458;14.540;2023-04-05T09:11:15;101412.10;;;22.20;18.37
68077;BME280;54866;53.458;14.540;2023-04-05T09:13:42;101406.61;;;22.35;18.50
68077;BME280;54866;53.458;14.540;2023-04-05T09:16:10;101406.81;;;22.65;18.18
68077;BME280;54866;53.458;14.540;2023-04-05T09:18:39;101403.89;;;23.57;17.90
68077;BME280;54866;53.458;14.540;2023-04-05T09:21:07;101402.56;;;23.82;16.75
68077;BME280;54866;53.458;14.540;2023-04-05T09:23:36;101405.13;;;23.39;17.25
68077;BME280;54866;53.458;14.540;2023-04-05T09:26:18;101405.22;;;23.49;17.10
68077;BME280;54866;53.458;14.540;2023-04-05T09:28:47;101405.64;;;23.57;16.84
68077;BME280;54866;53.458;14.540;2023-04-05T09:31:32;101406.74;;;23.36;16.95
68077;BME280;54866;53.458;14.540;2023-04-05T09:34:02;101413.05;;;21.70;17.99
68077;BME280;54866;53.458;14.540;2023-04-05T09:36:29;101411.55;;;21.33;18.21
68077;BME280;54866;53.458;14.540;2023-04-05T09:39:05;101406.02;;;21.33;18.59
68077;BME280;54866;53.458;14.540;2023-04-05T09:41:33;101410.70;;;21.16;18.70
68077;BME280;54866;53.458;14.540;2023-04-05T09:44:01;101409.16;;;20.91;18.92
68077;BME280;54866;53.458;14.540;2023-04-05T09:46:30;101405.73;;;21.84;18.87
68077;BME280;54866;53.458;14.540;2023-04-05T09:48:58;101404.06;;;22.34;18.36
68077;BME280;54866;53.458;14.540;2023-04-05T09:51:32;101401.21;;;22.91;18.10
68077;BME280;54866;53.458;14.540;2023-04-05T09:54:01;101401.05;;;23.43;17.09
68077;BME280;54866;53.458;14.540;2023-04-05T09:56:30;101400.14;;;23.01;17.09
68077;BME280;54866;53.458;14.540;2023-04-05T09:59:05;101397.19;;;22.34;17.29
68077;BME280;54866;53.458;14.540;2023-04-05T10:01:33;101394.04;;;21.92;17.24
68077;BME280;54866;53.458;14.540;2023-04-05T10:04:01;101387.12;;;21.60;17.75
68077;BME280;54866;53.458;14.540;2023-04-05T10:06:35;101389.98;;;21.28;18.00
68077;BME280;54866;53.458;14.540;2023-04-05T10:09:04;101389.95;;;20.35;18.86
68077;BME280;54866;53.458;14.540;2023-04-05T10:11:33;101391.30;;;20.58;18.62
68077;BME280;54866;53.458;14.540;2023-04-05T10:14:02;101390.14;;;20.74;18.59
68077;BME280;54866;53.458;14.540;2023-04-05T10:16:32;101388.10;;;20.97;18.28
68077;BME280;54866;53.458;14.540;2023-04-05T10:19:05;101387.63;;;20.95;18.34
68077;BME280;54866;53.458;14.540;2023-04-05T10:21:36;101388.85;;;20.82;18.01
68077;BME280;54866;53.458;14.540;2023-04-05T10:24:13;101385.70;;;20.14;18.79
68077;BME280;54866;53.458;14.540;2023-04-05T10:26:54;101386.23;;;18.94;19.43
68077;BME280;54866;53.458;14.540;2023-04-05T10:29:37;101387.39;;;18.28;19.92
68077;BME280;54866;53.458;14.540;2023-04-05T10:32:12;101382.55;;;17.79;20.35
68077;BME280;54866;53.458;14.540;2023-04-05T10:34:53;101389.60;;;17.49;20.83
68077;BME280;54866;53.458;14.540;2023-04-05T10:37:29;101377.70;;;17.73;20.83
68077;BME280;54866;53.458;14.540;2023-04-05T10:40:04;101378.31;;;17.31;21.30
68077;BME280;54866;53.458;14.540;2023-04-05T10:42:41;101381.55;;;17.36;21.72
68077;BME280;54866;53.458;14.540;2023-04-05T10:45:12;101382.88;;;17.39;21.62
68077;BME280;54866;53.458;14.540;2023-04-05T10:47:47;101376.61;;;17.30;21.30
68077;BME280;54866;53.458;14.540;2023-04-05T10:50:20;101374.88;;;17.34;22.13
68077;BME280;54866;53.458;14.540;2023-04-05T10:52:49;101376.02;;;17.39;22.02
68077;BME280;54866;53.458;14.540;2023-04-05T10:55:17;101376.60;;;16.97;22.63
68077;BME280;54866;53.458;14.540;2023-04-05T10:57:45;101379.95;;;16.72;21.92
68077;BME280;54866;53.458;14.540;2023-04-05T11:00:15;101374.61;;;15.53;22.64
68077;BME280;54866;53.458;14.540;2023-04-05T11:02:43;101376.23;;;14.24;24.21
68077;BME280;54866;53.458;14.540;2023-04-05T11:05:32;101380.55;;;13.24;25.50
68077;BME280;54866;53.458;14.540;2023-04-05T11:08:07;101380.41;;;12.12;26.60
68077;BME280;54866;53.458;14.540;2023-04-05T11:10:36;101381.05;;;11.45;27.72
68077;BME280;54866;53.458;14.540;2023-04-05T11:13:07;101375.63;;;11.14;28.37
68077;BME280;54866;53.458;14.540;2023-04-05T11:15:36;101378.64;;;10.83;28.95
68077;BME280;54866;53.458;14.540;2023-04-05T11:18:05;101380.16;;;10.74;28.94
68077;BME280;54866;53.458;14.540;2023-04-05T11:20:44;101369.15;;;11.33;28.59
68077;BME280;54866;53.458;14.540;2023-04-05T11:23:13;101370.29;;;12.51;27.95
68077;BME280;54866;53.458;14.540;2023-04-05T11:25:47;101361.55;;;13.76;26.96
68077;BME280;54866;53.458;14.540;2023-04-05T11:28:24;101352.33;;;14.87;25.35
68077;BME280;54866;53.458;14.540;2023-04-05T11:30:53;101350.92;;;14.72;24.79
68077;BME280;54866;53.458;14.540;2023-04-05T11:33:58;101350.98;;;14.53;25.45
68077;BME280;54866;53.458;14.540;2023-04-05T11:36:37;101351.25;;;14.02;25.92
68077;BME280;54866;53.458;14.540;2023-04-05T11:39:26;101351.45;;;13.76;26.48
68077;BME280;54866;53.458;14.540;2023-04-05T11:41:57;101351.01;;;14.44;26.11
68077;BME280;54866;53.458;14.540;2023-04-05T11:44:25;101345.23;;;15.31;25.47
68077;BME280;54866;53.458;14.540;2023-04-05T11:46:53;101342.73;;;16.44;24.35
68077;BME280;54866;53.458;14.540;2023-04-05T11:49:22;101336.48;;;17.49;23.55
68077;BME280;54866;53.458;14.540;2023-04-05T11:51:51;101334.66;;;18.43;22.66
68077;BME280;54866;53.458;14.540;2023-04-05T11:54:30;101329.73;;;19.15;21.79
68077;BME280;54866;53.458;14.540;2023-04-05T11:56:57;101331.92;;;19.69;20.27
68077;BME280;54866;53.458;14.540;2023-04-05T11:59:29;101329.45;;;19.14;20.08
68077;BME280;54866;53.458;14.540;2023-04-05T12:02:01;101331.52;;;18.72;20.57
68077;BME280;54866;53.458;14.540;2023-04-05T12:04:30;101328.04;;;18.66;20.58
68077;BME280;54866;53.458;14.540;2023-04-05T12:07:15;101324.95;;;18.75;20.48
68077;BME280;54866;53.458;14.540;2023-04-05T12:10:08;101319.92;;;17.98;20.77
68077;BME280;54866;53.458;14.540;2023-04-05T12:12:40;101332.84;;;17.09;21.89
68077;BME280;54866;53.458;14.540;2023-04-05T12:15:10;101333.03;;;15.83;22.84
68077;BME280;54866;53.458;14.540;2023-04-05T12:17:46;101335.21;;;14.80;24.81
68077;BME280;54866;53.458;14.540;2023-04-05T12:20:18;101328.39;;;13.89;25.12
68077;BME280;54866;53.458;14.540;2023-04-05T12:22:46;101328.48;;;13.47;25.94
68077;BME280;54866;53.458;14.540;2023-04-05T12:25:15;101329.24;;;13.51;25.82
68077;BME280;54866;53.458;14.540;2023-04-05T12:27:44;101326.95;;;13.31;25.66
68077;BME280;54866;53.458;14.540;2023-04-05T12:30:14;101328.18;;;13.06;25.93
68077;BME280;54866;53.458;14.540;2023-04-05T12:32:44;101320.89;;;13.38;26.05
68077;BME280;54866;53.458;14.540;2023-04-05T12:35:14;101318.61;;;13.90;25.37
68077;BME280;54866;53.458;14.540;2023-04-05T12:37:41;101315.55;;;14.40;24.98
68077;BME280;54866;53.458;14.540;2023-04-05T12:40:11;101310.08;;;14.62;24.59
68077;BME280;54866;53.458;14.540;2023-04-05T12:42:39;101306.92;;;15.11;24.69
68077;BME280;54866;53.458;14.540;2023-04-05T12:45:10;101307.47;;;15.75;23.81
68077;BME280;54866;53.458;14.540;2023-04-05T12:47:49;101312.47;;;16.14;23.42
68077;BME280;54866;53.458;14.540;2023-04-05T12:50:18;101306.63;;;16.63;23.07
68077;BME280;54866;53.458;14.540;2023-04-05T12:52:53;101303.22;;;16.44;22.19
68077;BME280;54866;53.458;14.540;2023-04-05T12:55:21;101308.27;;;15.40;22.86
68077;BME280;54866;53.458;14.540;2023-04-05T12:57:53;101308.39;;;14.49;24.18
68077;BME280;54866;53.458;14.540;2023-04-05T13:00:22;101307.38;;;13.69;25.06
68077;BME280;54866;53.458;14.540;2023-04-05T13:02:54;101315.31;;;12.99;25.64
68077;BME280;54866;53.458;14.540;2023-04-05T13:05:24;101316.80;;;12.27;26.88
68077;BME280;54866;53.458;14.540;2023-04-05T13:07:52;101314.85;;;11.57;27.70
68077;BME280;54866;53.458;14.540;2023-04-05T13:10:21;101315.90;;;11.00;28.59